Clayton, WA (99110)

10:45 AM PDT on March 28, 2015 (GMT -0700)
800 North Vernon Ave | | Change Station
CLOSE
Current Station
Personal Weather Station
Location: Deer Park, WA
Elevation: 2132 ft
Nearby Weather Stations

Elev 2132 ft 47.96 °N, 117.48 °W | Updated 27 seconds ago

Mostly Cloudy
Mostly Cloudy
53.2 °F
Feels Like 53.2 °F
N
3.6
Wind Variable Wind from SW
Gusts 3.6 mph

Today
High -- | Low -- °F
--% Chance of Precip.
Yesterday
High -- | Low -- °F
Precip. -- in
6:36 AM 7:14 PM
Waxing Gibbous, 64% visible
Pressure 30.07 in
Visibility 10.0 miles
Clouds Mostly Cloudy 10000 ft
Dew Point 22 °F
Humidity 29%
Rainfall 0.35 in
Snow Depth Not available.
UV 2 out of 12
Pollen 7.70 out of 12
Air Quality Not available.
Flu Activity Not available.
METAR KDEW 281653Z AUTO 23014G18KT 10SM BKN100 08/02 A3005 RMK AO2 SLP182 T00830022

More Conditions Fewer Conditions

Pressure 30.07 in
Visibility 10.0 miles
Clouds Mostly Cloudy 10000 ft
Dew Point 22 °F
Humidity 29%
Rainfall 0.35 in
Snow Depth Not available.
UV 2 out of 12
Pollen 7.70 out of 12
Air Quality Not available.
Flu Activity Not available.
METAR KDEW 281653Z AUTO 23014G18KT 10SM BKN100 08/02 A3005 RMK AO2 SLP182 T00830022

More Conditions Fewer Conditions

10-Day Weather Forecast

Almanac

Astronomy

Mar. 28, 2015 Rise Set
Actual Time
Civil Twilight
Nautical Twilight
Astronomical Twilight
Moon
Length of Visible Light
Length of Day
Tomorrow will be .
, % of the Moon is Illuminated

Today's Extremes

State Highs State Lows

Community

WunderPhotos

Upload Photos

1,809,034 photos uploaded!

WunderBlogs® & News

Nearby

Air Quality

  Air Quality AQ Index Pollutant
Not available.

Snow Depth

Station Depth Elevation

Earthquake Activity

City Distance Mag. Time & Date
Minimum magnitude displayed is 2.5.

Coastal Water Temperatures

Place Temperature

Stations

Nearby Weather Stations

Station Location Temp. Windchill Dew Point Humidity Wind Precip. Elev Updated Type